Time;durP1;ratioP1;P1;durP2;ratioP2;P2;SDS_P1;SDS_P2;PMS_P1;PMS_P2;Temp;Humidity;BMP_temperature;BMP_pressure;BME280_temperature;BME280_humidity;BME280_pressure;Samples;Min_cycle;Max_cycle;Signal;HPM_P1;HPM_P2
2022/10/28 00:01:09;;;;;;;14.65;8.65;;;16.80;99.90;;;;;;4997229;28;91710;-73
2022/10/28 00:03:38;;;;;;;16.75;9.07;;;16.70;99.90;;;;;;4994770;28;95825;-73
2022/10/28 00:06:09;;;;;;;14.93;9.50;;;16.70;99.90;;;;;;5011727;28;92487;-73
2022/10/28 00:08:36;;;;;;;21.40;10.38;;;16.70;99.90;;;;;;4994826;28;94886;-73
2022/10/28 00:11:15;;;;;;;17.20;9.88;;;16.60;99.90;;;;;;4995550;28;103880;-73
2022/10/28 00:13:43;;;;;;;15.23;9.65;;;16.60;99.90;;;;;;4996305;28;93248;-73
2022/10/28 00:16:18;;;;;;;14.23;9.55;;;16.50;99.90;;;;;;5011418;28;92441;-73
2022/10/28 00:18:46;;;;;;;16.17;10.52;;;16.50;99.90;;;;;;4996133;28;94187;-73
2022/10/28 00:21:18;;;;;;;15.05;10.38;;;16.50;99.90;;;;;;4993964;28;92491;-73
2022/10/28 00:23:45;;;;;;;23.03;10.77;;;16.40;99.90;;;;;;4995493;28;93358;-73
2022/10/28 00:26:14;;;;;;;14.18;10.82;;;16.40;99.90;;;;;;4994744;28;95685;-73
2022/10/28 00:28:44;;;;;;;15.73;10.98;;;16.40;99.90;;;;;;5010643;28;92462;-73
2022/10/28 00:31:14;;;;;;;17.10;11.32;;;16.30;99.90;;;;;;4993799;28;92534;-73
2022/10/28 00:33:41;;;;;;;15.35;10.25;;;16.30;99.90;;;;;;4994106;28;95846;-73
2022/10/28 00:36:11;;;;;;;12.13;9.85;;;16.20;99.90;;;;;;4994286;28;95532;-73
2022/10/28 00:38:39;;;;;;;17.67;10.15;;;16.20;99.90;;;;;;5011133;28;92477;-73
2022/10/28 00:41:07;;;;;;;12.68;10.25;;;16.20;99.90;;;;;;4995499;28;92417;-73
2022/10/28 00:43:38;;;;;;;15.07;10.77;;;16.20;99.90;;;;;;5010538;28;95929;-73
2022/10/28 00:46:19;;;;;;;18.67;11.27;;;16.20;99.90;;;;;;4993742;28;95593;-73
2022/10/28 00:48:50;;;;;;;17.25;11.20;;;16.20;99.90;;;;;;4995387;28;92754;-73
2022/10/28 00:51:21;;;;;;;15.02;11.98;;;16.20;99.90;;;;;;5011262;28;91817;-73
2022/10/28 00:53:50;;;;;;;19.58;11.52;;;16.20;99.90;;;;;;4995093;28;93256;-73
2022/10/28 00:56:18;;;;;;;18.23;11.02;;;16.20;99.90;;;;;;5010342;28;94198;-73
2022/10/28 00:58:47;;;;;;;20.45;11.77;;;16.30;99.90;;;;;;5008444;28;94966;-73
2022/10/28 01:01:14;;;;;;;17.65;11.10;;;16.30;99.90;;;;;;4995107;28;92424;-73
2022/10/28 01:03:41;;;;;;;18.75;11.55;;;16.30;99.90;;;;;;4993579;28;95722;-73
2022/10/28 01:06:09;;;;;;;21.00;11.85;;;16.30;99.90;;;;;;4993720;28;95280;-73
2022/10/28 01:08:36;;;;;;;18.45;11.40;;;16.30;99.90;;;;;;4995104;28;92439;-73
2022/10/28 01:11:22;;;;;;;14.40;10.43;;;16.30;99.90;;;;;;4994930;28;93456;-73
2022/10/28 01:14:09;;;;;;;17.33;11.02;;;16.30;99.90;;;;;;5009930;28;95805;-73
2022/10/28 01:16:39;;;;;;;19.10;11.30;;;16.30;99.90;;;;;;4995492;28;93181;-73
2022/10/28 01:19:30;;;;;;;16.50;11.70;;;16.30;99.90;;;;;;4994536;28;92583;-73
2022/10/28 01:22:11;;;;;;;20.60;11.40;;;16.40;99.90;;;;;;4994868;28;92316;-73
2022/10/28 01:25:22;;;;;;;15.13;11.02;;;16.30;99.90;;;;;;4993790;28;95747;-73
2022/10/28 01:28:10;;;;;;;16.23;11.30;;;16.30;99.90;;;;;;4936290;28;98068;-73
2022/10/28 01:31:00;;;;;;;21.83;11.60;;;16.30;99.90;;;;;;4953313;28;92723;-73
2022/10/28 01:33:48;;;;;;;18.02;12.15;;;16.40;99.90;;;;;;4956243;28;92533;-73
2022/10/28 01:36:33;;;;;;;19.33;11.75;;;16.40;99.90;;;;;;4994704;28;93438;-73
2022/10/28 01:39:05;;;;;;;20.05;11.90;;;16.30;99.90;;;;;;5009528;28;94077;-73
2022/10/28 01:42:04;;;;;;;17.80;12.05;;;16.30;99.90;;;;;;4994951;28;92456;-73
2022/10/28 01:45:05;;;;;;;19.42;11.75;;;16.30;99.90;;;;;;4992017;28;91712;-73
2022/10/28 01:47:43;;;;;;;18.13;12.25;;;16.20;99.90;;;;;;4992812;28;96115;-73
2022/10/28 01:50:23;;;;;;;19.17;12.30;;;16.10;99.90;;;;;;5009811;28;92371;-73
2022/10/28 01:52:53;;;;;;;18.65;11.65;;;16.10;99.90;;;;;;4993147;28;94828;-73
2022/10/28 01:55:29;;;;;;;18.83;11.10;;;16.10;99.90;;;;;;5009784;28;92458;-73
2022/10/28 01:57:59;;;;;;;18.45;12.63;;;16.00;99.90;;;;;;5009267;28;96140;-73
2022/10/28 02:00:27;;;;;;;21.50;11.45;;;16.00;99.90;;;;;;5009664;28;92873;-73
2022/10/28 02:02:55;;;;;;;16.02;10.77;;;16.00;99.90;;;;;;4994262;28;92510;-73
2022/10/28 02:05:49;;;;;;;14.32;11.10;;;15.90;99.90;;;;;;4992231;28;110681;-73
2022/10/28 02:08:53;;;;;;;16.50;10.97;;;15.90;99.90;;;;;;4994246;28;93182;-73
2022/10/28 02:11:48;;;;;;;18.88;13.05;;;15.90;99.90;;;;;;4995756;28;92833;-73
2022/10/28 02:14:29;;;;;;;23.10;11.40;;;15.80;99.90;;;;;;4997631;28;92337;-73
2022/10/28 02:17:26;;;;;;;21.23;11.70;;;15.80;99.90;;;;;;5012801;28;92682;-73
2022/10/28 02:19:53;;;;;;;17.52;11.88;;;15.80;99.90;;;;;;4996098;28;95477;-73
2022/10/28 02:22:35;;;;;;;15.57;11.65;;;15.70;99.90;;;;;;4997546;28;95506;-73
2022/10/28 02:25:08;;;;;;;19.20;12.13;;;15.70;99.90;;;;;;4996040;28;92527;-73
2022/10/28 02:27:40;;;;;;;16.33;11.93;;;15.70;99.90;;;;;;5013039;28;92525;-73
2022/10/28 02:30:11;;;;;;;17.63;12.50;;;15.70;99.90;;;;;;5012494;28;95726;-73
2022/10/28 02:32:43;;;;;;;15.75;12.50;;;15.60;99.90;;;;;;4997002;28;93030;-73
2022/10/28 02:35:38;;;;;;;22.58;12.20;;;15.60;99.90;;;;;;4997476;28;93293;-73
2022/10/28 02:38:13;;;;;;;18.45;12.02;;;15.70;99.90;;;;;;5012857;28;91773;-73
2022/10/28 02:40:44;;;;;;;15.75;11.77;;;15.60;99.90;;;;;;5012696;28;93341;-73
2022/10/28 02:43:14;;;;;;;20.63;11.63;;;15.60;99.90;;;;;;4997349;28;92893;-73
2022/10/28 02:45:45;;;;;;;15.90;11.63;;;15.60;99.90;;;;;;4996215;28;94865;-73
2022/10/28 02:48:52;;;;;;;20.83;12.20;;;15.60;99.90;;;;;;5012541;28;92868;-73
2022/10/28 02:51:39;;;;;;;19.55;12.93;;;15.70;99.90;;;;;;4996954;28;93283;-73
2022/10/28 02:54:10;;;;;;;18.70;11.88;;;15.60;99.90;;;;;;4996974;28;93413;-73
2022/10/28 02:56:52;;;;;;;18.17;12.48;;;15.60;99.90;;;;;;5012604;28;92440;-73
2022/10/28 02:59:19;;;;;;;17.30;12.82;;;15.60;99.90;;;;;;4996872;28;92401;-73
2022/10/28 03:01:46;;;;;;;19.92;12.80;;;15.50;99.90;;;;;;5011922;28;95783;-73
2022/10/28 03:04:13;;;;;;;19.60;12.02;;;15.50;99.90;;;;;;5012245;28;95822;-73
2022/10/28 03:06:40;;;;;;;19.13;12.27;;;15.50;99.90;;;;;;4996549;28;102741;-73
2022/10/28 03:09:07;;;;;;;20.05;13.40;;;15.50;99.90;;;;;;4996815;28;92459;-73
2022/10/28 03:11:34;;;;;;;19.45;13.02;;;15.50;99.90;;;;;;4995454;28;95718;-73
2022/10/28 03:14:01;;;;;;;20.75;13.15;;;15.50;99.90;;;;;;5011599;28;95488;-73
2022/10/28 03:16:27;;;;;;;23.40;12.65;;;15.50;99.90;;;;;;4995790;28;93079;-73
2022/10/28 03:18:54;;;;;;;20.35;13.88;;;15.50;99.90;;;;;;4978921;28;92593;-73
2022/10/28 03:21:21;;;;;;;19.17;13.40;;;15.40;99.90;;;;;;5011536;28;95845;-73
2022/10/28 03:23:48;;;;;;;19.13;13.13;;;15.40;99.90;;;;;;4994164;28;93262;-73
2022/10/28 03:26:15;;;;;;;24.33;13.38;;;15.40;99.90;;;;;;4996520;28;92419;-73
2022/10/28 03:28:42;;;;;;;21.73;12.88;;;15.40;99.90;;;;;;4978914;28;92874;-73
2022/10/28 03:31:09;;;;;;;17.05;13.05;;;15.30;99.90;;;;;;4994040;28;114930;-73
2022/10/28 03:33:36;;;;;;;18.08;13.30;;;15.30;99.90;;;;;;4994688;28;95610;-73
2022/10/28 03:36:04;;;;;;;21.10;13.00;;;15.30;99.90;;;;;;5010575;28;94746;-73
2022/10/28 03:38:30;;;;;;;18.65;12.93;;;15.30;99.90;;;;;;4996419;28;92438;-73
2022/10/28 03:40:57;;;;;;;17.65;12.00;;;15.30;99.90;;;;;;4996178;28;93290;-73
2022/10/28 03:43:24;;;;;;;17.73;13.05;;;15.30;99.90;;;;;;5011480;28;92925;-73
2022/10/28 03:45:51;;;;;;;20.95;13.18;;;15.20;99.90;;;;;;4994803;28;92515;-73
2022/10/28 03:48:18;;;;;;;21.40;13.95;;;15.30;99.90;;;;;;4995643;28;104018;-73
2022/10/28 03:50:45;;;;;;;20.70;14.32;;;15.30;99.90;;;;;;4994944;28;93308;-73
2022/10/28 03:53:12;;;;;;;20.02;13.70;;;15.20;99.90;;;;;;4994882;28;95674;-73
2022/10/28 03:55:39;;;;;;;24.65;14.57;;;15.30;99.90;;;;;;4996197;28;92391;-73
2022/10/28 03:58:05;;;;;;;19.00;13.35;;;15.20;99.90;;;;;;4996204;28;92996;-73
2022/10/28 04:00:32;;;;;;;17.33;13.15;;;15.20;99.90;;;;;;4993242;28;98310;-73
2022/10/28 04:02:59;;;;;;;20.70;13.38;;;15.20;99.90;;;;;;4995919;28;95203;-73
2022/10/28 04:05:26;;;;;;;18.23;13.65;;;15.10;99.90;;;;;;4995797;28;92891;-73
2022/10/28 04:07:53;;;;;;;18.75;13.15;;;15.10;99.90;;;;;;4994923;28;93300;-73
2022/10/28 04:10:20;;;;;;;19.60;14.18;;;15.20;99.90;;;;;;5010810;28;94779;-73
2022/10/28 04:12:47;;;;;;;20.50;14.27;;;15.10;99.90;;;;;;4995791;28;92967;-73
2022/10/28 04:15:14;;;;;;;18.48;13.13;;;15.10;99.90;;;;;;4995626;28;92349;-73
2022/10/28 04:17:41;;;;;;;17.52;13.55;;;15.10;99.90;;;;;;4996286;28;91573;-72
2022/10/28 04:20:08;;;;;;;19.67;12.75;;;15.10;99.90;;;;;;4995606;28;93285;-73
2022/10/28 04:22:35;;;;;;;20.90;13.30;;;15.10;99.90;;;;;;4994326;28;92987;-73
2022/10/28 04:25:02;;;;;;;20.98;12.75;;;15.00;99.90;;;;;;4993335;28;94839;-73
2022/10/28 04:27:29;;;;;;;20.00;13.73;;;15.00;99.90;;;;;;5010860;28;93174;-73
2022/10/28 04:29:56;;;;;;;19.20;13.57;;;15.00;99.90;;;;;;4995479;28;93119;-73
2022/10/28 04:32:23;;;;;;;24.90;14.00;;;14.90;99.90;;;;;;5009508;28;114015;-73
2022/10/28 04:34:50;;;;;;;21.77;14.38;;;15.00;99.90;;;;;;5010586;28;92438;-73
2022/10/28 04:37:17;;;;;;;18.85;12.65;;;14.90;99.90;;;;;;5010364;28;92451;-73
2022/10/28 04:39:46;;;;;;;23.15;13.23;;;15.00;99.90;;;;;;4995171;28;93305;-73
2022/10/28 04:42:13;;;;;;;21.30;13.15;;;14.90;99.90;;;;;;4994167;28;93100;-73
2022/10/28 04:44:40;;;;;;;16.52;13.20;;;14.90;99.90;;;;;;4995542;28;92782;-73
2022/10/28 04:47:07;;;;;;;20.10;13.00;;;14.90;99.90;;;;;;4995392;28;92471;-73
2022/10/28 04:49:34;;;;;;;19.35;11.88;;;14.90;99.90;;;;;;4993854;28;95709;-73
2022/10/28 04:52:01;;;;;;;19.98;12.75;;;14.90;99.90;;;;;;5009949;28;103513;-73
2022/10/28 04:54:28;;;;;;;23.65;13.77;;;14.90;99.90;;;;;;5010533;28;93033;-73
2022/10/28 04:56:55;;;;;;;17.00;11.88;;;14.90;99.90;;;;;;4995185;28;92439;-73
2022/10/28 04:59:22;;;;;;;16.02;12.05;;;14.90;99.90;;;;;;5010026;28;95504;-73
2022/10/28 05:01:49;;;;;;;20.33;12.35;;;14.90;99.90;;;;;;4993737;28;93133;-73
2022/10/28 05:04:16;;;;;;;22.10;12.82;;;14.90;99.90;;;;;;5010296;28;93006;-73
2022/10/28 05:06:43;;;;;;;16.40;11.63;;;14.90;99.90;;;;;;4994265;28;91759;-73
2022/10/28 05:09:10;;;;;;;17.58;11.63;;;14.90;99.90;;;;;;5010295;28;95731;-73
2022/10/28 05:11:37;;;;;;;17.13;12.40;;;14.90;99.90;;;;;;4994716;28;92785;-73
2022/10/28 05:14:04;;;;;;;14.85;11.25;;;14.90;99.90;;;;;;4994063;28;94870;-73
2022/10/28 05:16:31;;;;;;;15.13;11.80;;;14.90;99.90;;;;;;4993294;28;92472;-73
2022/10/28 05:18:58;;;;;;;19.27;11.88;;;14.90;99.90;;;;;;5009919;28;93385;-73
2022/10/28 05:21:25;;;;;;;16.50;11.20;;;14.90;99.90;;;;;;4994752;28;93231;-73
2022/10/28 05:23:52;;;;;;;15.30;11.75;;;14.90;99.90;;;;;;5010361;28;93184;-73
2022/10/28 05:26:19;;;;;;;16.77;11.25;;;14.90;99.90;;;;;;5009748;28;92503;-73
2022/10/28 05:28:49;;;;;;;20.08;11.43;;;14.90;99.90;;;;;;4994861;28;93329;-73
2022/10/28 05:31:17;;;;;;;20.55;12.43;;;15.00;99.90;;;;;;5010294;28;94085;-73
2022/10/28 05:33:44;;;;;;;21.73;11.80;;;14.90;99.90;;;;;;4993649;28;92454;-73
2022/10/28 05:36:11;;;;;;;18.23;11.80;;;14.90;99.90;;;;;;4993458;28;92536;-74
2022/10/28 05:38:39;;;;;;;19.90;12.00;;;14.90;99.90;;;;;;4993184;28;95550;-73
2022/10/28 05:41:05;;;;;;;17.75;11.80;;;14.90;99.90;;;;;;4976772;28;97882;-74
2022/10/28 05:43:32;;;;;;;17.58;11.43;;;14.90;99.90;;;;;;4994637;28;92358;-73
2022/10/28 05:46:01;;;;;;;15.98;12.20;;;15.00;99.90;;;;;;5010611;28;92458;-73
2022/10/28 05:48:28;;;;;;;16.40;11.93;;;14.90;99.90;;;;;;5013023;28;104136;-73
2022/10/28 05:50:55;;;;;;;20.80;11.80;;;14.90;99.90;;;;;;5013235;28;92634;-73
2022/10/28 05:53:22;;;;;;;15.20;11.43;;;14.90;99.90;;;;;;4997876;28;92419;-73
2022/10/28 05:55:49;;;;;;;20.80;12.10;;;14.90;99.90;;;;;;4996947;28;91824;-73
2022/10/28 05:58:16;;;;;;;19.27;12.43;;;14.90;99.90;;;;;;4997900;28;93387;-73
2022/10/28 06:00:43;;;;;;;18.63;11.30;;;14.90;99.90;;;;;;4996058;28;96145;-74
2022/10/28 06:03:11;;;;;;;19.45;11.50;;;14.90;99.90;;;;;;5012044;28;94961;-73
2022/10/28 06:05:43;;;;;;;24.02;12.35;;;14.90;99.90;;;;;;4996445;28;92466;-74
2022/10/28 06:08:12;;;;;;;17.80;12.52;;;14.90;99.90;;;;;;4997803;28;93249;-74
2022/10/28 06:10:40;;;;;;;19.60;11.35;;;14.90;99.90;;;;;;5012691;28;93090;-73
2022/10/28 06:13:07;;;;;;;20.45;11.35;;;14.80;99.90;;;;;;4997755;28;92858;-73
2022/10/28 06:15:34;;;;;;;17.67;11.38;;;14.90;99.90;;;;;;4997595;28;92539;-73
2022/10/28 06:18:01;;;;;;;15.43;11.70;;;14.80;99.90;;;;;;4996307;28;93041;-73
2022/10/28 06:20:28;;;;;;;20.92;12.13;;;14.80;99.90;;;;;;4996384;28;93285;-73
2022/10/28 06:22:58;;;;;;;17.83;11.77;;;14.90;99.90;;;;;;4997862;28;92961;-74
2022/10/28 06:25:25;;;;;;;17.85;12.10;;;14.90;99.90;;;;;;4997264;28;92450;-73
2022/10/28 06:27:57;;;;;;;17.08;12.25;;;14.90;99.90;;;;;;5011225;28;95618;-73
2022/10/28 06:30:25;;;;;;;18.38;11.73;;;14.90;99.90;;;;;;4997356;28;95502;-73
2022/10/28 06:32:55;;;;;;;18.75;11.57;;;14.90;99.90;;;;;;4995485;28;92453;-74
2022/10/28 06:35:23;;;;;;;22.27;12.75;;;14.90;99.90;;;;;;4997512;28;93115;-74
2022/10/28 06:37:56;;;;;;;14.77;11.15;;;14.90;99.90;;;;;;4997056;28;93165;-75
2022/10/28 06:40:24;;;;;;;17.02;11.60;;;14.90;99.90;;;;;;4996968;28;92960;-75
2022/10/28 06:42:59;;;;;;;14.75;11.45;;;14.90;99.90;;;;;;5012301;28;99913;-75
2022/10/28 06:45:27;;;;;;;15.88;10.65;;;14.90;99.90;;;;;;4997716;28;91724;-74
2022/10/28 06:47:59;;;;;;;18.05;11.32;;;14.90;99.90;;;;;;4995524;28;96832;-75
2022/10/28 06:50:27;;;;;;;17.40;10.75;;;14.90;99.90;;;;;;4995510;28;95658;-75
2022/10/28 06:52:57;;;;;;;21.92;11.65;;;14.90;99.90;;;;;;5010928;28;94914;-75
2022/10/28 06:55:25;;;;;;;17.58;11.35;;;15.00;99.90;;;;;;4997234;28;92505;-74
2022/10/28 06:57:52;;;;;;;17.90;11.20;;;15.00;99.90;;;;;;5011601;28;95790;-74
2022/10/28 07:00:20;;;;;;;16.52;11.20;;;15.00;99.90;;;;;;5012286;28;92884;-74
2022/10/28 07:02:51;;;;;;;18.67;11.10;;;15.00;99.90;;;;;;4995822;28;93068;-74
2022/10/28 07:05:19;;;;;;;14.48;10.27;;;15.10;99.90;;;;;;4997113;28;92913;-75
2022/10/28 07:07:45;;;;;;;19.92;11.00;;;15.10;99.90;;;;;;5011950;28;94231;-74
2022/10/28 07:10:12;;;;;;;15.68;10.60;;;15.20;99.90;;;;;;4995371;28;109230;-74
2022/10/28 07:12:39;;;;;;;14.13;10.05;;;15.20;99.90;;;;;;4995109;28;92639;-75
2022/10/28 07:15:08;;;;;;;16.33;11.15;;;15.30;99.90;;;;;;4995857;28;92966;-74
2022/10/28 07:17:34;;;;;;;16.77;10.20;;;15.40;99.90;;;;;;4993771;28;95570;-75
2022/10/28 07:20:01;;;;;;;14.10;8.95;;;15.50;99.90;;;;;;4994964;28;98504;-74
2022/10/28 07:22:28;;;;;;;17.95;9.65;;;15.60;99.90;;;;;;4997364;28;92616;-75
2022/10/28 07:24:55;;;;;;;12.52;9.25;;;15.70;99.90;;;;;;4995605;28;92588;-75
2022/10/28 07:27:22;;;;;;;13.48;9.32;;;15.80;99.90;;;;;;4997210;28;93314;-75
2022/10/28 07:29:49;;;;;;;15.75;9.65;;;15.90;99.90;;;;;;4995284;28;95740;-74
2022/10/28 07:32:16;;;;;;;13.27;9.23;;;16.00;99.90;;;;;;4994711;28;93010;-74
2022/10/28 07:34:43;;;;;;;15.18;9.05;;;16.10;99.90;;;;;;5012600;28;91736;-74
2022/10/28 07:37:11;;;;;;;13.30;9.15;;;16.20;99.90;;;;;;4995656;28;93158;-75
2022/10/28 07:39:38;;;;;;;15.45;8.50;;;16.30;99.90;;;;;;4994775;28;106650;-74
2022/10/28 07:42:05;;;;;;;14.05;9.48;;;16.40;99.90;;;;;;4994439;28;94845;-75
2022/10/28 07:44:32;;;;;;;12.57;9.18;;;16.40;99.90;;;;;;4996959;28;92337;-75
2022/10/28 07:47:00;;;;;;;11.20;8.57;;;16.50;99.90;;;;;;4996506;28;93313;-75
2022/10/28 07:49:27;;;;;;;16.40;10.23;;;16.70;99.90;;;;;;4996740;28;93059;-75
2022/10/28 07:51:54;;;;;;;11.40;8.25;;;16.80;99.90;;;;;;4994733;28;92488;-74
2022/10/28 07:54:21;;;;;;;10.32;8.00;;;17.00;99.90;;;;;;4996897;28;92474;-75
2022/10/28 07:56:48;;;;;;;16.17;8.40;;;17.20;99.90;;;;;;4994852;28;96341;-75
2022/10/28 07:59:15;;;;;;;12.65;8.52;;;17.30;99.90;;;;;;4995675;28;91868;-75
2022/10/28 08:01:42;;;;;;;10.98;8.38;;;17.30;99.90;;;;;;4995100;28;92490;-75
2022/10/28 08:04:09;;;;;;;15.85;8.73;;;17.30;99.90;;;;;;4996703;28;92447;-74
2022/10/28 08:06:36;;;;;;;13.70;8.77;;;17.40;99.90;;;;;;4994825;28;104638;-75
2022/10/28 08:09:03;;;;;;;15.13;8.88;;;17.40;99.90;;;;;;4995427;28;95455;-75
2022/10/28 08:11:30;;;;;;;15.55;9.23;;;17.40;99.90;;;;;;4996535;28;92422;-74
2022/10/28 08:13:57;;;;;;;13.98;9.38;;;17.40;99.90;;;;;;4996145;28;92433;-75
2022/10/28 08:16:24;;;;;;;16.38;8.57;;;17.40;99.90;;;;;;4996235;28;93348;-75
2022/10/28 08:18:52;;;;;;;13.30;8.57;;;17.50;99.90;;;;;;4996164;28;93233;-75
2022/10/28 08:21:18;;;;;;;19.50;9.88;;;17.50;99.90;;;;;;4978535;28;92827;-75
2022/10/28 08:23:45;;;;;;;10.73;7.97;;;17.50;99.90;;;;;;4994854;28;93429;-75
2022/10/28 08:26:14;;;;;;;16.05;8.23;;;17.50;99.90;;;;;;4996177;28;93269;-75
2022/10/28 08:28:42;;;;;;;11.18;8.27;;;17.60;99.90;;;;;;4996073;28;93041;-74
2022/10/28 08:31:11;;;;;;;11.45;7.72;;;17.60;99.90;;;;;;4995073;28;95077;-75
2022/10/28 08:33:40;;;;;;;15.07;8.43;;;17.60;99.90;;;;;;4995568;28;92464;-75
2022/10/28 08:36:08;;;;;;;11.40;7.38;;;17.70;99.90;;;;;;4995552;28;93161;-75
2022/10/28 08:38:35;;;;;;;18.50;12.23;;;17.80;99.90;;;;;;4995849;28;92874;-75
2022/10/28 08:41:07;;;;;;;12.38;7.85;;;17.90;99.90;;;;;;5010328;28;92446;-75
2022/10/28 08:43:41;;;;;;;11.52;7.50;;;18.00;99.90;;;;;;4994736;28;92531;-75
2022/10/28 08:46:22;;;;;;;17.05;7.93;;;18.10;99.90;;;;;;4995313;28;93323;-75
2022/10/28 08:48:49;;;;;;;12.10;7.43;;;18.10;99.90;;;;;;4995948;28;93019;-75
2022/10/28 08:51:48;;;;;;;14.73;6.93;;;18.20;99.90;;;;;;5011430;28;93183;-74
2022/10/28 08:54:23;;;;;;;14.88;7.68;;;18.40;99.90;;;;;;4959627;28;92534;-74
2022/10/28 08:56:53;;;;;;;10.95;7.03;;;18.40;99.90;;;;;;4992844;28;98330;-75
2022/10/28 08:59:29;;;;;;;14.13;7.38;;;18.50;99.90;;;;;;4994475;28;95556;-75
2022/10/28 09:02:01;;;;;;;11.25;7.07;;;18.70;99.90;;;;;;4995420;28;92470;-75
2022/10/28 09:04:38;;;;;;;11.93;7.18;;;18.70;99.90;;;;;;4995822;28;92517;-75
2022/10/28 09:07:16;;;;;;;15.38;6.30;;;18.90;99.90;;;;;;4994099;28;95900;-75
2022/10/28 09:09:45;;;;;;;12.82;7.47;;;19.00;99.90;;;;;;4994538;28;92821;-75
2022/10/28 09:12:45;;;;;;;13.07;6.72;;;19.10;99.90;;;;;;5010220;28;105549;-75
2022/10/28 09:15:43;;;;;;;11.75;6.97;;;19.20;99.90;;;;;;4978139;28;91765;-75
2022/10/28 09:18:25;;;;;;;12.35;6.22;;;19.40;99.90;;;;;;4995383;28;93360;-75
2022/10/28 09:20:56;;;;;;;14.43;7.38;;;19.50;99.90;;;;;;4997122;28;92985;-75
2022/10/28 09:23:33;;;;;;;16.42;6.75;;;19.60;99.90;;;;;;4998195;28;94914;-74
2022/10/28 09:26:00;;;;;;;13.57;6.80;;;19.80;99.90;;;;;;4999144;28;92366;-75
2022/10/28 09:28:48;;;;;;;11.73;6.40;;;19.90;99.90;;;;;;4999000;28;94130;-75
2022/10/28 09:31:27;;;;;;;11.27;6.40;;;20.00;99.90;;;;;;4998590;28;93886;-75
2022/10/28 09:34:00;;;;;;;11.55;6.68;;;20.20;99.90;;;;;;5013925;28;92408;-75
2022/10/28 09:36:54;;;;;;;12.65;6.10;;;20.30;99.90;;;;;;4999310;28;92520;-75
2022/10/28 09:39:27;;;;;;;11.18;6.32;;;20.40;99.90;;;;;;4995463;28;93199;-75
2022/10/28 09:41:57;;;;;;;;;;;20.40;99.90;;;;;;4999467;28;93039;-75
2022/10/28 09:44:33;;;;;;;14.93;6.95;;;20.40;99.90;;;;;;5015394;28;92526;-75
2022/10/28 09:47:04;;;;;;;11.95;5.47;;;20.50;99.90;;;;;;4998706;28;92363;-75
2022/10/28 09:49:35;;;;;;;12.02;6.18;;;20.50;99.90;;;;;;4997342;28;95674;-75
2022/10/28 09:52:08;;;;;;;12.35;6.63;;;20.60;99.90;;;;;;5013643;28;95348;-75
2022/10/28 09:54:51;;;;;;;10.45;6.50;;;20.70;99.90;;;;;;4998587;28;92328;-75
2022/10/28 09:57:21;;;;;;;9.23;5.82;;;20.80;99.90;;;;;;4998612;28;92532;-75
2022/10/28 09:59:48;;;;;;;12.13;6.75;;;20.80;99.90;;;;;;5013573;28;95661;-75
2022/10/28 10:02:26;;;;;;;11.07;6.03;;;20.90;99.90;;;;;;4996295;28;107606;-75
2022/10/28 10:04:58;;;;;;;13.75;5.93;;;21.00;99.90;;;;;;5014192;28;92551;-75
2022/10/28 10:07:29;;;;;;;14.55;6.65;;;21.10;99.90;;;;;;4999003;28;91701;-75
2022/10/28 10:10:02;;;;;;;11.55;6.88;;;21.10;99.90;;;;;;4998487;28;93329;-75
2022/10/28 10:12:35;;;;;;;13.02;7.00;;;21.20;99.90;;;;;;5013086;28;93053;-75
2022/10/28 10:15:04;;;;;;;11.15;6.55;;;21.20;99.90;;;;;;4995479;28;94899;-75
2022/10/28 10:17:38;;;;;;;11.15;5.93;;;21.30;99.90;;;;;;4998334;28;92515;-75
2022/10/28 10:20:11;;;;;;;12.20;6.05;;;21.40;99.90;;;;;;4996542;28;95697;-75
2022/10/28 10:22:43;;;;;;;11.95;7.40;;;21.40;99.90;;;;;;5013618;28;93834;-75
2022/10/28 10:25:17;;;;;;;14.00;6.03;;;21.50;99.90;;;;;;4996623;28;92587;-75
2022/10/28 10:27:53;;;;;;;;;;;21.50;99.90;;;;;;4997286;28;92430;-75
2022/10/28 10:30:27;;;;;;;10.10;5.85;;;21.40;99.90;;;;;;5014127;28;95596;-75
2022/10/28 10:32:55;;;;;;;14.07;6.03;;;21.50;99.90;;;;;;5012629;28;93400;-75
2022/10/28 10:35:28;;;;;;;10.85;6.25;;;21.50;99.90;;;;;;4996338;28;92442;-75
2022/10/28 10:37:58;;;;;;;12.88;7.40;;;21.70;99.90;;;;;;4997995;28;92461;-75
2022/10/28 10:40:32;;;;;;;14.85;7.28;;;21.60;99.90;;;;;;4996182;28;95753;-75
2022/10/28 10:43:17;;;;;;;13.82;6.45;;;21.70;99.90;;;;;;4996714;28;95326;-75
2022/10/28 10:45:51;;;;;;;12.63;6.82;;;21.80;99.90;;;;;;5013273;28;92513;-75
2022/10/28 10:48:18;;;;;;;15.32;6.78;;;21.80;99.90;;;;;;5013110;28;92597;-75
2022/10/28 10:50:48;;;;;;;11.60;6.55;;;21.70;99.90;;;;;;4997606;28;93258;-75
2022/10/28 10:53:20;;;;;;;12.52;7.00;;;21.80;99.90;;;;;;5012568;28;92637;-75
2022/10/28 10:55:50;;;;;;;13.77;6.25;;;21.80;99.90;;;;;;4996284;28;92413;-75
2022/10/28 10:58:21;;;;;;;11.52;6.15;;;21.80;99.90;;;;;;4998103;28;91710;-75
2022/10/28 11:00:54;;;;;;;11.85;6.18;;;21.90;99.90;;;;;;4997245;28;92486;-75
2022/10/28 11:03:33;;;;;;;15.30;6.40;;;22.00;99.90;;;;;;5012886;28;93819;-75
2022/10/28 11:06:01;;;;;;;12.32;6.43;;;22.10;99.90;;;;;;4996677;28;94863;-75
2022/10/28 11:09:01;;;;;;;17.85;6.68;;;22.00;99.90;;;;;;5012924;28;93010;-75
2022/10/28 11:11:39;;;;;;;11.98;6.07;;;22.00;99.90;;;;;;4997266;28;93153;-75
2022/10/28 11:14:18;;;;;;;9.80;6.65;;;22.10;99.90;;;;;;5012481;28;93037;-75
2022/10/28 11:16:54;;;;;;;9.32;6.05;;;22.10;99.90;;;;;;5013246;28;92659;-75
2022/10/28 11:19:35;;;;;;;13.43;6.93;;;22.20;99.90;;;;;;4996166;28;93027;-75
2022/10/28 11:22:20;;;;;;;13.88;6.63;;;22.20;99.90;;;;;;4995216;28;93248;-75
2022/10/28 11:25:06;;;;;;;11.63;6.45;;;22.10;99.90;;;;;;4996058;28;95998;-75
2022/10/28 11:27:58;;;;;;;11.20;6.50;;;22.10;99.90;;;;;;4995911;28;92477;-75
2022/10/28 11:30:56;;;;;;;12.70;5.97;;;22.10;99.90;;;;;;4997053;28;92434;-75
2022/10/28 11:33:56;;;;;;;10.98;7.13;;;22.20;99.90;;;;;;4993564;28;98358;-75
2022/10/28 11:36:31;;;;;;;13.82;7.18;;;22.30;99.90;;;;;;4978992;28;95579;-75
2022/10/28 11:39:24;;;;;;;13.65;6.40;;;22.30;99.90;;;;;;4997277;28;92893;-75
2022/10/28 11:42:30;;;;;;;13.35;5.82;;;22.50;99.90;;;;;;5012495;28;92477;-75
2022/10/28 11:45:10;;;;;;;11.98;5.68;;;22.60;99.90;;;;;;4995747;28;93360;-73
2022/10/28 11:47:58;;;;;;;9.98;5.30;;;22.70;99.90;;;;;;4995445;28;95839;-75
2022/10/28 11:50:58;;;;;;;12.95;6.00;;;22.70;99.90;;;;;;4995416;28;92577;-75
2022/10/28 11:54:03;;;;;;;10.32;5.40;;;22.70;99.90;;;;;;5012247;28;92385;-75
2022/10/28 11:56:47;;;;;;;11.98;6.00;;;22.70;99.90;;;;;;4996410;28;93316;-75
2022/10/28 11:59:32;;;;;;;8.85;6.10;;;22.60;99.90;;;;;;4996395;28;92952;-75
2022/10/28 12:02:11;;;;;;;10.75;6.28;;;22.50;99.90;;;;;;4994105;28;95199;-75
2022/10/28 12:04:52;;;;;;;15.98;5.50;;;22.50;99.90;;;;;;4996680;28;92447;-75
2022/10/28 12:07:26;;;;;;;11.15;6.00;;;22.50;99.90;;;;;;4996384;28;93198;-75
2022/10/28 12:10:17;;;;;;;13.40;5.80;;;22.50;99.90;;;;;;4996465;28;94151;-75
2022/10/28 12:12:59;;;;;;;12.40;7.25;;;22.60;99.90;;;;;;4996748;28;92504;-75
2022/10/28 12:15:49;;;;;;;10.13;5.38;;;22.60;99.90;;;;;;4996421;28;92340;-75
2022/10/28 12:18:26;;;;;;;12.10;6.18;;;22.70;99.90;;;;;;4996208;28;93202;-75
2022/10/28 12:21:16;;;;;;;16.67;6.68;;;22.70;99.90;;;;;;5012174;28;93176;-75
2022/10/28 12:23:43;;;;;;;11.25;5.70;;;22.80;99.90;;;;;;4990749;28;92438;-75
2022/10/28 12:26:14;;;;;;;12.73;5.78;;;22.90;99.90;;;;;;4994942;28;92599;-75
2022/10/28 12:28:45;;;;;;;10.93;5.35;;;23.00;99.90;;;;;;4995047;28;95663;-75
2022/10/28 12:31:28;;;;;;;14.23;6.30;;;23.00;99.90;;;;;;5011262;28;97909;-75
2022/10/28 12:33:59;;;;;;;13.80;6.22;;;23.00;99.90;;;;;;5011182;28;92554;-75
2022/10/28 12:36:47;;;;;;;12.48;5.47;;;23.00;99.90;;;;;;4995993;28;92487;-75
2022/10/28 12:39:16;;;;;;;12.88;6.05;;;23.00;99.90;;;;;;4994621;28;95691;-75
2022/10/28 12:42:01;;;;;;;9.55;5.78;;;23.00;99.90;;;;;;4994420;28;96933;-75
2022/10/28 12:44:31;;;;;;;10.35;5.55;;;23.00;99.90;;;;;;4996076;28;92454;-75
2022/10/28 12:47:13;;;;;;;13.57;5.78;;;23.00;99.90;;;;;;4996181;28;91719;-75
2022/10/28 12:49:49;;;;;;;12.75;5.50;;;23.00;99.90;;;;;;4994118;28;96162;-75
2022/10/28 12:52:28;;;;;;;11.55;6.85;;;23.00;99.90;;;;;;4995869;28;92943;-75
2022/10/28 12:55:14;;;;;;;11.25;5.53;;;23.10;99.90;;;;;;4994774;28;95336;-75
2022/10/28 12:57:52;;;;;;;15.63;5.65;;;23.20;99.90;;;;;;4996073;28;92479;-75
2022/10/28 13:00:25;;;;;;;12.13;6.10;;;23.20;99.90;;;;;;4995901;28;92995;-75